Startpagina
METAR-TAF:

METAR-TAF

Vliegvelden :

Nörvenich, Duitsland

breedte: 50-50N, lengte: 006-40E, hoogte: 118 m

Actueel weer

Dit bericht is 22 minuten geleden gemaakt, om 06:20 UTC
Wind 4 kt uit het westen
Temperatuur 5°C
Vochtigheid 100%
Druk 1029 hPa
Zicht: 0350 m

METAR: ETNN 200620Z AUTO 26004KT 0350 // ////// 05/05 Q1029 ///

Tijdstip: 08:42 (06:42 UTC)

Verwachting

Dit bericht is 19 uur en het 1 minuten geleden gemaakt, om 11:41 UTC
Verwachting geldig van 19 om 11 UTC tot 19 om 17 UTC
Wind 1 kt uit variabele richting
Zicht: 0200 m
op 100 ft
mist
Wijzigt naar
van 19 om 08 UTC tot 19 om 10 UTC
Wind 3 kt uit het oostnoordoosten
Zicht: 2000 m
Gebroken wolken op 300 ft
Verspreide wolken op 2000 ft
nevel
Wijzigt naar
van 19 om 10 UTC tot 19 om 12 UTC
Wind 5 kt uit het noordoosten
Zicht: 1145 m
Verspreide wolken op 700 ft
Gebroken wolken op 3000 ft

TAF: ETNN 191141Z 1911/1917 VRB01KT 0200 FG VV001 BECMG 1908/1910 06003KT 2000 BR BKN003 SCT020 BECMG 1910/1912 04005KT 6000 NSW SCT007 BKN030 CANCEL 1145 BY ETGL

Waarnemingen en weersverwachtingen van meer dan 4000 vliegvelden (METAR en TAF).

De beschikbare stations zijn de gele en rode punten op de kaart.

Ga met uw muis naar het station om de naam te zien.

Klik dan om waarnemingen en weersverwachtingen te zien.

kaart wijzigen: klik op de groene knoppen met een zwart kruis om in te zoomen, op de groene knop met een streepje om uit te zoomen of op de groene pijlen voor aangrenzende kaarten.


METAR-TAF: